AFR026 LFPG-KLAX
Flight info
| Callsign | AFR026 |
|---|---|
| Flight time | N/A |
| Altitude | 36000 |
| Route | ATREX DCT VESAN DCT RATUK DCT SOVAT L613 LEHOC DCT BEGAM DCT SHAPP DCT INPIP DCT NORBO DCT TIR DCT ERAKA/M084F360 DCT 63N020W 66N030W/M085F380 68N040W 69N050W 69N060W DCT BOPUT/N0497F380 DCT 68N070W DCT YZS J530 YYQ/N0492F400 Q827 RAWZY DCT KU15O DCT BAXGO DCT KU75K DCT KO60I DCT FRA/N0484F410 J7 REBRG IRNMN2 |
| Aircraft | A359/H-SDE2E3GHIJ3J4J5LM1ORWXY/LB1D1 |
Departure
| Time | N/A |
|---|---|
| Airport | Charles de Gaulle International Airport (LFPG) |
Arrival
| Time | 2026-04-22 15:06 |
|---|---|
| Airport | Los Angeles International Airport (KLAX) |
| Time | Latitude | Longitude | Altitude | Speed | Heading |
|---|---|---|---|---|---|
| 2026-04-22 14:06 | 40.03399 | -117.97638 | 41105 ft | 480 kts | 213° |
| 2026-04-22 14:07 | 39.97492 | -118.01696 | 41045 ft | 479 kts | 208° |
| 2026-04-22 14:07 | 39.91376 | -118.05149 | 41048 ft | 479 kts | 207° |
| 2026-04-22 14:08 | 39.85321 | -118.08481 | 41054 ft | 467 kts | 207° |
| 2026-04-22 14:08 | 39.79380 | -118.11826 | 41062 ft | 464 kts | 208° |
| 2026-04-22 14:09 | 39.73472 | -118.15202 | 41073 ft | 464 kts | 208° |
| 2026-04-22 14:09 | 39.67600 | -118.18560 | 41075 ft | 464 kts | 208° |
| 2026-04-22 14:10 | 39.61693 | -118.21928 | 41075 ft | 464 kts | 208° |
| 2026-04-22 14:10 | 39.55785 | -118.25287 | 41086 ft | 463 kts | 208° |
| 2026-04-22 14:11 | 39.49881 | -118.28637 | 41085 ft | 463 kts | 208° |
| 2026-04-22 14:11 | 39.43982 | -118.31979 | 41089 ft | 463 kts | 208° |
| 2026-04-22 14:12 | 39.38083 | -118.35314 | 41092 ft | 463 kts | 208° |
| 2026-04-22 14:12 | 39.33139 | -118.38105 | 41083 ft | 463 kts | 208° |
| 2026-04-22 14:13 | 39.26274 | -118.41974 | 41077 ft | 464 kts | 208° |
| 2026-04-22 14:13 | 39.20357 | -118.45301 | 41084 ft | 464 kts | 208° |
| 2026-04-22 14:14 | 39.09310 | -118.51495 | 41071 ft | 464 kts | 208° |
| 2026-04-22 14:14 | 38.86747 | -118.64082 | 41064 ft | 463 kts | 209° |
| 2026-04-22 14:15 | 38.63072 | -118.77193 | 41099 ft | 461 kts | 209° |
| 2026-04-22 14:15 | 38.39561 | -118.90124 | 41078 ft | 459 kts | 210° |
| 2026-04-22 14:16 | 38.16786 | -119.02562 | 41079 ft | 457 kts | 210° |
| 2026-04-22 14:16 | 38.10974 | -119.05721 | 41091 ft | 455 kts | 210° |
| 2026-04-22 14:17 | 38.05145 | -119.08886 | 41099 ft | 455 kts | 210° |
| 2026-04-22 14:17 | 37.99318 | -119.12044 | 41099 ft | 455 kts | 210° |
| 2026-04-22 14:18 | 37.93494 | -119.15198 | 41129 ft | 456 kts | 210° |
| 2026-04-22 14:18 | 37.87673 | -119.18342 | 41132 ft | 454 kts | 210° |
| 2026-04-22 14:19 | 37.81862 | -119.21473 | 41148 ft | 454 kts | 210° |
| 2026-04-22 14:19 | 37.76050 | -119.24605 | 41162 ft | 454 kts | 210° |
| 2026-04-22 14:20 | 37.67296 | -119.29302 | 41175 ft | 457 kts | 210° |
| 2026-04-22 14:20 | 37.61447 | -119.32436 | 41185 ft | 457 kts | 210° |
| 2026-04-22 14:21 | 37.52675 | -119.37125 | 41192 ft | 457 kts | 210° |
| 2026-04-22 14:22 | 37.43902 | -119.41802 | 41200 ft | 455 kts | 210° |
| 2026-04-22 14:23 | 37.35176 | -119.46442 | 41181 ft | 453 kts | 210° |
| 2026-04-22 14:23 | 37.29372 | -119.49526 | 41188 ft | 453 kts | 210° |
| 2026-04-22 14:24 | 37.23561 | -119.52607 | 41189 ft | 453 kts | 210° |
| 2026-04-22 14:24 | 37.17765 | -119.55672 | 41184 ft | 451 kts | 211° |
| 2026-04-22 14:25 | 37.11951 | -119.58613 | 41188 ft | 456 kts | 205° |
| 2026-04-22 14:25 | 37.08800 | -119.59409 | 41192 ft | 469 kts | 193° |
| 2026-04-22 14:25 | 37.05514 | -119.59618 | 41198 ft | 474 kts | 190° |
| 2026-04-22 14:26 | 36.98898 | -119.59752 | 41168 ft | 476 kts | 190° |
| 2026-04-22 14:26 | 36.92336 | -119.59859 | 41211 ft | 473 kts | 190° |
| 2026-04-22 14:27 | 36.85745 | -119.59971 | 41216 ft | 473 kts | 190° |
| 2026-04-22 14:27 | 36.79172 | -119.60085 | 41221 ft | 473 kts | 190° |
| 2026-04-22 14:28 | 36.72586 | -119.60199 | 41219 ft | 473 kts | 190° |
| 2026-04-22 14:28 | 36.66008 | -119.60313 | 41219 ft | 473 kts | 190° |
| 2026-04-22 14:29 | 36.59430 | -119.60426 | 41212 ft | 473 kts | 190° |
| 2026-04-22 14:29 | 36.52855 | -119.60538 | 41217 ft | 472 kts | 191° |
| 2026-04-22 14:30 | 36.46290 | -119.60651 | 41225 ft | 472 kts | 191° |
| 2026-04-22 14:30 | 36.39725 | -119.60764 | 41229 ft | 471 kts | 191° |
| 2026-04-22 14:31 | 36.33170 | -119.60875 | 41218 ft | 471 kts | 191° |
| 2026-04-22 14:31 | 36.26620 | -119.60987 | 41231 ft | 471 kts | 191° |
| 2026-04-22 14:32 | 36.20074 | -119.61099 | 41225 ft | 471 kts | 191° |
| 2026-04-22 14:32 | 36.13521 | -119.61211 | 41170 ft | 470 kts | 191° |
| 2026-04-22 14:33 | 36.06976 | -119.61322 | 41215 ft | 471 kts | 191° |
| 2026-04-22 14:33 | 36.00432 | -119.61469 | 41203 ft | 467 kts | 193° |
| 2026-04-22 14:33 | 35.97248 | -119.61942 | 41202 ft | 455 kts | 201° |
| 2026-04-22 14:34 | 35.94213 | -119.62907 | 41200 ft | 447 kts | 206° |
| 2026-04-22 14:34 | 35.88304 | -119.65141 | 41197 ft | 447 kts | 207° |
| 2026-04-22 14:35 | 35.82316 | -119.67407 | 41191 ft | 447 kts | 207° |
| 2026-04-22 14:35 | 35.76395 | -119.69631 | 41197 ft | 448 kts | 207° |
| 2026-04-22 14:36 | 35.70443 | -119.71860 | 41197 ft | 448 kts | 207° |
| 2026-04-22 14:36 | 35.64382 | -119.73837 | 41184 ft | 455 kts | 201° |
| 2026-04-22 14:37 | 35.58169 | -119.75350 | 41197 ft | 455 kts | 201° |
| 2026-04-22 14:37 | 35.51953 | -119.76849 | 41192 ft | 455 kts | 201° |
| 2026-04-22 14:38 | 35.45728 | -119.78355 | 41191 ft | 455 kts | 201° |
| 2026-04-22 14:38 | 35.39511 | -119.79858 | 41193 ft | 455 kts | 201° |
| 2026-04-22 14:39 | 35.33183 | -119.80918 | 41193 ft | 471 kts | 190° |
| 2026-04-22 14:39 | 35.29871 | -119.80598 | 41201 ft | 485 kts | 180° |
| 2026-04-22 14:39 | 35.26554 | -119.79536 | 41199 ft | 501 kts | 169° |
| 2026-04-22 14:40 | 35.21375 | -119.76131 | 40302 ft | 525 kts | 151° |
| 2026-04-22 14:40 | 35.17607 | -119.72161 | 39167 ft | 536 kts | 149° |
| 2026-04-22 14:40 | 35.14709 | -119.69305 | 38269 ft | 537 kts | 151° |
| 2026-04-22 14:40 | 35.11753 | -119.66492 | 37438 ft | 537 kts | 151° |
| 2026-04-22 14:41 | 35.08799 | -119.63712 | 36666 ft | 536 kts | 151° |
| 2026-04-22 14:41 | 35.05845 | -119.60948 | 35899 ft | 535 kts | 151° |
| 2026-04-22 14:41 | 35.02890 | -119.58192 | 35114 ft | 534 kts | 151° |
| 2026-04-22 14:41 | 34.99935 | -119.55443 | 34392 ft | 532 kts | 151° |
| 2026-04-22 14:42 | 34.96989 | -119.52707 | 33557 ft | 532 kts | 151° |
| 2026-04-22 14:42 | 34.94045 | -119.49977 | 32614 ft | 533 kts | 150° |
| 2026-04-22 14:42 | 34.91083 | -119.47236 | 31624 ft | 536 kts | 150° |
| 2026-04-22 14:42 | 34.88083 | -119.44524 | 30681 ft | 537 kts | 151° |
| 2026-04-22 14:43 | 34.85076 | -119.41842 | 29855 ft | 534 kts | 151° |
| 2026-04-22 14:43 | 34.82134 | -119.39207 | 29432 ft | 513 kts | 151° |
| 2026-04-22 14:43 | 34.79326 | -119.36686 | 28929 ft | 490 kts | 152° |
| 2026-04-22 14:43 | 34.76634 | -119.34278 | 28278 ft | 472 kts | 152° |
| 2026-04-22 14:44 | 34.74015 | -119.31948 | 27434 ft | 461 kts | 152° |
| 2026-04-22 14:44 | 34.71434 | -119.29691 | 26497 ft | 453 kts | 153° |
| 2026-04-22 14:44 | 34.69246 | -119.27788 | 25723 ft | 447 kts | 153° |
| 2026-04-22 14:44 | 34.66740 | -119.25607 | 24809 ft | 440 kts | 152° |
| 2026-04-22 14:45 | 34.64274 | -119.23455 | 24084 ft | 430 kts | 152° |
| 2026-04-22 14:45 | 34.61870 | -119.21371 | 23402 ft | 421 kts | 153° |
| 2026-04-22 14:45 | 34.59461 | -119.19322 | 22915 ft | 423 kts | 153° |
| 2026-04-22 14:45 | 34.57063 | -119.17263 | 22361 ft | 421 kts | 153° |
| 2026-04-22 14:46 | 34.54710 | -119.15231 | 21812 ft | 420 kts | 152° |
| 2026-04-22 14:46 | 34.52360 | -119.13151 | 21297 ft | 417 kts | 152° |
| 2026-04-22 14:46 | 34.50027 | -119.11075 | 20795 ft | 415 kts | 152° |
| 2026-04-22 14:46 | 34.47710 | -119.09021 | 20336 ft | 411 kts | 151° |
| 2026-04-22 14:47 | 34.45407 | -119.06979 | 19846 ft | 409 kts | 151° |
| 2026-04-22 14:47 | 34.43118 | -119.04948 | 19384 ft | 405 kts | 151° |
| 2026-04-22 14:47 | 34.40834 | -119.02963 | 18928 ft | 402 kts | 152° |
| 2026-04-22 14:47 | 34.38580 | -119.01014 | 18264 ft | 394 kts | 152° |
| 2026-04-22 14:48 | 34.36337 | -118.99080 | 17584 ft | 396 kts | 151° |
| 2026-04-22 14:48 | 34.34104 | -118.97153 | 17082 ft | 393 kts | 151° |
| 2026-04-22 14:48 | 34.31904 | -118.95214 | 16580 ft | 391 kts | 149° |
| 2026-04-22 14:48 | 34.29740 | -118.93235 | 16065 ft | 388 kts | 149° |
| 2026-04-22 14:49 | 34.27603 | -118.91278 | 15587 ft | 384 kts | 149° |
| 2026-04-22 14:49 | 34.25475 | -118.89337 | 15079 ft | 382 kts | 149° |
| 2026-04-22 14:49 | 34.23361 | -118.87413 | 14565 ft | 380 kts | 148° |
| 2026-04-22 14:49 | 34.21268 | -118.85482 | 14101 ft | 377 kts | 148° |
| 2026-04-22 14:50 | 34.19192 | -118.83565 | 13590 ft | 374 kts | 148° |
| 2026-04-22 14:50 | 34.17153 | -118.81686 | 13340 ft | 363 kts | 148° |
| 2026-04-22 14:50 | 34.15192 | -118.79833 | 13123 ft | 353 kts | 144° |
| 2026-04-22 14:50 | 34.13396 | -118.77866 | 12906 ft | 344 kts | 141° |
| 2026-04-22 14:51 | 34.11683 | -118.75930 | 12321 ft | 334 kts | 142° |
| 2026-04-22 14:51 | 34.09991 | -118.74045 | 11681 ft | 327 kts | 141° |
| 2026-04-22 14:51 | 34.08343 | -118.72225 | 11288 ft | 318 kts | 142° |
| 2026-04-22 14:51 | 34.06696 | -118.70432 | 10888 ft | 321 kts | 142° |
| 2026-04-22 14:52 | 34.05055 | -118.68656 | 10653 ft | 313 kts | 142° |
| 2026-04-22 14:52 | 34.03553 | -118.66774 | 10393 ft | 312 kts | 128° |
| 2026-04-22 14:52 | 34.02723 | -118.64363 | 10011 ft | 316 kts | 100° |
| 2026-04-22 14:52 | 34.02446 | -118.61745 | 9553 ft | 315 kts | 95° |
| 2026-04-22 14:53 | 34.02232 | -118.59111 | 9142 ft | 313 kts | 95° |
| 2026-04-22 14:53 | 34.02011 | -118.56538 | 8767 ft | 309 kts | 96° |
| 2026-04-22 14:53 | 34.01781 | -118.53946 | 8405 ft | 305 kts | 96° |
| 2026-04-22 14:53 | 34.01553 | -118.51421 | 8082 ft | 301 kts | 96° |
| 2026-04-22 14:54 | 34.01326 | -118.48998 | 7751 ft | 297 kts | 96° |
| 2026-04-22 14:54 | 34.01118 | -118.46607 | 7429 ft | 293 kts | 93° |
| 2026-04-22 14:54 | 34.01257 | -118.44222 | 7109 ft | 290 kts | 78° |
| 2026-04-22 14:54 | 34.01514 | -118.42646 | 6898 ft | 288 kts | 76° |
| 2026-04-22 14:55 | 34.01942 | -118.40235 | 6570 ft | 285 kts | 76° |
| 2026-04-22 14:55 | 34.02352 | -118.37921 | 6196 ft | 278 kts | 78° |
| 2026-04-22 14:55 | 34.02743 | -118.35668 | 6072 ft | 276 kts | 77° |
| 2026-04-22 14:55 | 34.03060 | -118.33382 | 5991 ft | 277 kts | 82° |
| 2026-04-22 14:56 | 34.03263 | -118.31146 | 5985 ft | 276 kts | 83° |
| 2026-04-22 14:56 | 34.03477 | -118.28785 | 5985 ft | 277 kts | 82° |
| 2026-04-22 14:56 | 34.03715 | -118.26503 | 5981 ft | 277 kts | 82° |
| 2026-04-22 14:56 | 34.03964 | -118.24245 | 5975 ft | 276 kts | 81° |
| 2026-04-22 14:57 | 34.04219 | -118.21957 | 5983 ft | 276 kts | 81° |
| 2026-04-22 14:57 | 34.04411 | -118.20231 | 5745 ft | 273 kts | 81° |
| 2026-04-22 14:58 | 34.04514 | -118.19305 | 5566 ft | 273 kts | 81° |
| 2026-04-22 14:58 | 34.04767 | -118.17037 | 5187 ft | 271 kts | 82° |
| 2026-04-22 14:58 | 34.05016 | -118.14806 | 4910 ft | 266 kts | 82° |
| 2026-04-22 14:58 | 34.05259 | -118.12616 | 4579 ft | 262 kts | 82° |
| 2026-04-22 14:59 | 34.05472 | -118.10480 | 4326 ft | 252 kts | 86° |
| 2026-04-22 14:59 | 34.05160 | -118.08487 | 4156 ft | 242 kts | 116° |
| 2026-04-22 14:59 | 34.04093 | -118.06997 | 3974 ft | 231 kts | 148° |
| 2026-04-22 14:59 | 34.02598 | -118.06445 | 3818 ft | 219 kts | 181° |
| 2026-04-22 15:00 | 34.01206 | -118.06927 | 3580 ft | 211 kts | 214° |
| 2026-04-22 15:00 | 34.00125 | -118.08128 | 3308 ft | 207 kts | 229° |
| 2026-04-22 15:00 | 33.99202 | -118.09447 | 2994 ft | 205 kts | 231° |
| 2026-04-22 15:00 | 33.98457 | -118.10907 | 2622 ft | 206 kts | 248° |
| 2026-04-22 15:01 | 33.98087 | -118.12536 | 2445 ft | 205 kts | 260° |
| 2026-04-22 15:01 | 33.97885 | -118.14263 | 2475 ft | 206 kts | 262° |
| 2026-04-22 15:01 | 33.97706 | -118.15968 | 2495 ft | 206 kts | 263° |
| 2026-04-22 15:01 | 33.97532 | -118.17677 | 2499 ft | 205 kts | 263° |
| 2026-04-22 15:02 | 33.97356 | -118.19381 | 2503 ft | 205 kts | 263° |
| 2026-04-22 15:02 | 33.97181 | -118.21061 | 2495 ft | 195 kts | 263° |
| 2026-04-22 15:02 | 33.97016 | -118.22638 | 2504 ft | 190 kts | 263° |
| 2026-04-22 15:02 | 33.96853 | -118.24213 | 2511 ft | 190 kts | 263° |
| 2026-04-22 15:03 | 33.96690 | -118.25792 | 2508 ft | 189 kts | 263° |
| 2026-04-22 15:03 | 33.96530 | -118.27347 | 2291 ft | 185 kts | 263° |
| 2026-04-22 15:03 | 33.96374 | -118.28870 | 2028 ft | 182 kts | 263° |
| 2026-04-22 15:03 | 33.96219 | -118.30381 | 1775 ft | 182 kts | 263° |
| 2026-04-22 15:04 | 33.96067 | -118.31861 | 1516 ft | 172 kts | 263° |
| 2026-04-22 15:04 | 33.95925 | -118.33246 | 1305 ft | 162 kts | 263° |
| 2026-04-22 15:04 | 33.95792 | -118.34544 | 1076 ft | 151 kts | 263° |
| 2026-04-22 15:04 | 33.95668 | -118.35757 | 862 ft | 141 kts | 263° |
| 2026-04-22 15:05 | 33.95550 | -118.36896 | 680 ft | 135 kts | 264° |
| 2026-04-22 15:05 | 33.95434 | -118.38008 | 494 ft | 133 kts | 264° |
| 2026-04-22 15:05 | 33.95316 | -118.39118 | 304 ft | 133 kts | 264° |
| 2026-04-22 15:05 | 33.95202 | -118.40225 | 144 ft | 134 kts | 265° |
| 2026-04-22 15:06 | 33.95098 | -118.41298 | 103 ft | 112 kts | 263° |
| 2026-04-22 15:06 | 33.95027 | -118.41993 | 100 ft | 56 kts | 263° |
| 2026-04-22 15:06 | 33.94963 | -118.42325 | 102 ft | 31 kts | 240° |
| 2026-04-22 15:06 | 33.94881 | -118.42448 | 104 ft | 8 kts | 221° |
| 2026-04-22 15:07 | 33.94872 | -118.42457 | 104 ft | 0 kts | 218° |
| 2026-04-22 15:08 | 33.94867 | -118.42460 | 104 ft | 3 kts | 215° |
| 2026-04-22 15:08 | 33.94825 | -118.42481 | 104 ft | 9 kts | 194° |
| 2026-04-22 15:09 | 33.94755 | -118.42486 | 105 ft | 12 kts | 175° |
| 2026-04-22 15:09 | 33.94673 | -118.42453 | 104 ft | 11 kts | 123° |
| 2026-04-22 15:09 | 33.94670 | -118.42349 | 100 ft | 14 kts | 84° |
| 2026-04-22 15:09 | 33.94684 | -118.42217 | 102 ft | 18 kts | 82° |
| 2026-04-22 15:10 | 33.94701 | -118.42059 | 101 ft | 20 kts | 83° |
| 2026-04-22 15:10 | 33.94717 | -118.41899 | 101 ft | 15 kts | 83° |
| 2026-04-22 15:10 | 33.94667 | -118.41821 | 102 ft | 11 kts | 153° |
| 2026-04-22 15:10 | 33.94637 | -118.41745 | 100 ft | 10 kts | 115° |
| 2026-04-22 15:11 | 33.94565 | -118.41708 | 102 ft | 15 kts | 171° |
| 2026-04-22 15:11 | 33.94450 | -118.41690 | 102 ft | 16 kts | 173° |
| 2026-04-22 15:11 | 33.94340 | -118.41675 | 100 ft | 15 kts | 174° |
| 2026-04-22 15:11 | 33.94275 | -118.41651 | 101 ft | 5 kts | 120° |
| 2026-04-22 15:12 | 33.94275 | -118.41606 | 101 ft | 3 kts | 86° |
| 2026-04-22 15:12 | 33.94278 | -118.41570 | 99 ft | 3 kts | 83° |
| 2026-04-22 15:12 | 33.94279 | -118.41563 | 99 ft | 0 kts | 83° |